Time;durP1;ratioP1;P1;durP2;ratioP2;P2;SDS_P1;SDS_P2;PMS_P1;PMS_P2;Temp;Humidity;BMP_temperature;BMP_pressure;BME280_temperature;BME280_humidity;BME280_pressure;Samples;Min_cycle;Max_cycle;Signal;HPM_P1;HPM_P2
2023/08/16 00:00:47;;;;;;;10.38;7.32;;;14.40;99.90;;;;;;5090880;28;20044;-79
2023/08/16 00:03:13;;;;;;;9.27;6.90;;;14.30;99.90;;;;;;5092379;28;20046;-79
2023/08/16 00:05:43;;;;;;;10.05;7.68;;;14.30;99.90;;;;;;5092271;28;20542;-78
2023/08/16 00:08:09;;;;;;;9.45;7.10;;;14.30;99.90;;;;;;5091393;28;20481;-79
2023/08/16 00:10:35;;;;;;;9.60;7.82;;;14.30;99.90;;;;;;5090963;28;20068;-79
2023/08/16 00:13:00;;;;;;;8.30;7.03;;;14.30;99.90;;;;;;5093105;28;20185;-78
2023/08/16 00:15:26;;;;;;;10.23;7.05;;;14.30;99.90;;;;;;5091783;28;20052;-78
2023/08/16 00:17:53;;;;;;;8.55;6.43;;;14.30;99.90;;;;;;5091971;28;20044;-78
2023/08/16 00:20:24;;;;;;;7.75;6.45;;;14.30;99.90;;;;;;5091016;28;20128;-78
2023/08/16 00:22:50;;;;;;;8.48;5.93;;;14.20;99.90;;;;;;5091873;28;20442;-79
2023/08/16 00:25:15;;;;;;;8.18;6.25;;;14.20;99.90;;;;;;5092849;28;20036;-79
2023/08/16 00:27:41;;;;;;;9.07;6.00;;;14.10;99.90;;;;;;5091390;28;20048;-79
2023/08/16 00:30:10;;;;;;;8.25;6.40;;;14.00;99.90;;;;;;5092049;28;20084;-78
2023/08/16 00:32:37;;;;;;;9.00;6.80;;;14.10;99.90;;;;;;5092329;28;20048;-78
2023/08/16 00:35:02;;;;;;;9.45;7.32;;;14.00;99.90;;;;;;5090729;28;20048;-78
2023/08/16 00:37:28;;;;;;;8.68;6.60;;;14.00;99.90;;;;;;5091150;28;20448;-79
2023/08/16 00:39:54;;;;;;;9.07;6.88;;;14.00;99.90;;;;;;5074278;28;20476;-78
2023/08/16 00:42:19;;;;;;;9.68;6.32;;;14.00;99.90;;;;;;5092374;28;20582;-78
2023/08/16 00:44:48;;;;;;;10.52;7.07;;;14.00;99.90;;;;;;5091573;28;20491;-78
2023/08/16 00:47:14;;;;;;;7.95;6.00;;;14.00;99.90;;;;;;5091597;28;20471;-78
2023/08/16 00:49:41;;;;;;;7.95;6.07;;;14.00;99.90;;;;;;5091662;28;20488;-78
2023/08/16 00:52:07;;;;;;;7.57;6.20;;;13.90;99.90;;;;;;5091809;28;20040;-78
2023/08/16 00:54:33;;;;;;;9.27;7.03;;;13.90;99.90;;;;;;5092426;28;20043;-78
2023/08/16 00:57:00;;;;;;;8.63;6.82;;;13.90;99.90;;;;;;5092594;28;20533;-78
2023/08/16 00:59:27;;;;;;;9.98;6.97;;;13.90;99.90;;;;;;5077621;28;20422;-78
2023/08/16 01:01:53;;;;;;;10.85;7.10;;;13.90;99.90;;;;;;5073992;28;20377;-78
2023/08/16 01:04:20;;;;;;;11.35;6.72;;;13.90;99.90;;;;;;5091857;28;20484;-78
2023/08/16 01:06:45;;;;;;;7.32;5.75;;;13.90;99.90;;;;;;5072862;28;20051;-79
2023/08/16 01:09:11;;;;;;;8.60;6.07;;;13.90;99.90;;;;;;5092366;28;20044;-78
2023/08/16 01:12:15;;;;;;;9.18;5.68;;;13.80;99.90;;;;;;5073767;28;20095;-78
2023/08/16 01:15:21;;;;;;;9.15;6.53;;;13.80;99.90;;;;;;5082801;28;20040;-78
2023/08/16 01:17:50;;;;;;;8.57;6.18;;;13.80;99.90;;;;;;5091370;28;20385;-78
2023/08/16 01:20:16;;;;;;;8.88;5.40;;;13.70;99.90;;;;;;5073503;28;20080;-77
2023/08/16 01:22:55;;;;;;;8.75;5.35;;;13.60;99.90;;;;;;5095755;28;20058;-77
2023/08/16 01:25:24;;;;;;;8.02;5.97;;;13.60;99.90;;;;;;5075933;28;20044;-77
2023/08/16 01:27:54;;;;;;;7.93;6.32;;;13.60;99.90;;;;;;5056689;28;20101;-77
2023/08/16 01:30:21;;;;;;;8.93;6.75;;;13.60;99.90;;;;;;5057743;28;20057;-77
2023/08/16 01:32:48;;;;;;;8.93;6.53;;;13.60;99.90;;;;;;5075126;28;20041;-77
2023/08/16 01:35:17;;;;;;;8.07;6.25;;;13.60;99.90;;;;;;5073562;28;20472;-77
2023/08/16 01:37:44;;;;;;;9.02;6.32;;;13.50;99.90;;;;;;5074857;28;20052;-77
2023/08/16 01:40:13;;;;;;;8.75;6.05;;;13.60;99.90;;;;;;5093597;28;20044;-77
2023/08/16 01:42:50;;;;;;;6.80;5.50;;;13.60;99.90;;;;;;5077775;28;20040;-76
2023/08/16 01:45:18;;;;;;;6.82;5.20;;;13.60;99.90;;;;;;5097801;28;20089;-76
2023/08/16 01:47:47;;;;;;;7.57;5.32;;;13.50;99.90;;;;;;5097312;28;20044;-77
2023/08/16 01:50:13;;;;;;;7.85;5.82;;;13.50;99.90;;;;;;5092578;28;20062;-76
2023/08/16 01:52:39;;;;;;;6.80;5.32;;;13.50;99.90;;;;;;5096286;28;20173;-77
2023/08/16 01:55:05;;;;;;;7.45;5.80;;;13.50;99.90;;;;;;5093115;28;20048;-77
2023/08/16 01:57:31;;;;;;;7.97;5.50;;;13.40;99.90;;;;;;5094090;28;20047;-78
2023/08/16 01:59:57;;;;;;;6.57;5.28;;;13.40;99.90;;;;;;5094895;28;20039;-78
2023/08/16 02:02:24;;;;;;;7.63;5.60;;;13.40;99.90;;;;;;5091208;28;20495;-77
2023/08/16 02:04:50;;;;;;;7.68;5.63;;;13.40;99.90;;;;;;5095088;28;20055;-78
2023/08/16 02:07:15;;;;;;;7.20;5.03;;;13.40;99.90;;;;;;5093851;28;20052;-77
2023/08/16 02:09:41;;;;;;;6.18;5.15;;;13.40;99.90;;;;;;5093897;28;20059;-78
2023/08/16 02:12:07;;;;;;;7.50;5.13;;;13.30;99.90;;;;;;5076764;28;20490;-78
2023/08/16 02:14:33;;;;;;;9.15;4.85;;;13.30;99.90;;;;;;5076473;28;20040;-78
2023/08/16 02:16:58;;;;;;;5.68;4.30;;;13.30;99.90;;;;;;5076320;28;20050;-78
2023/08/16 02:19:24;;;;;;;5.95;4.50;;;13.30;99.90;;;;;;5094533;28;20381;-78
2023/08/16 02:21:50;;;;;;;5.05;4.00;;;13.30;99.90;;;;;;5093120;28;20044;-78
2023/08/16 02:24:15;;;;;;;7.38;4.70;;;13.20;99.90;;;;;;5093911;28;20130;-78
2023/08/16 02:26:41;;;;;;;4.63;3.55;;;13.20;99.90;;;;;;5093164;28;20040;-78
2023/08/16 02:29:07;;;;;;;5.38;3.92;;;13.20;99.90;;;;;;5093665;28;20047;-77
2023/08/16 02:31:32;;;;;;;6.05;4.38;;;13.20;99.90;;;;;;5091934;28;20400;-77
2023/08/16 02:33:58;;;;;;;5.32;4.10;;;13.10;99.90;;;;;;5093471;28;20081;-77
2023/08/16 02:36:24;;;;;;;6.05;4.43;;;13.10;99.90;;;;;;5093662;28;20113;-77
2023/08/16 02:38:49;;;;;;;5.78;4.78;;;13.10;99.90;;;;;;5094201;28;20052;-77
2023/08/16 02:41:15;;;;;;;5.63;4.40;;;13.10;99.90;;;;;;5094502;28;20047;-77
2023/08/16 02:43:41;;;;;;;8.00;4.55;;;13.10;99.90;;;;;;5093282;28;20063;-78
2023/08/16 02:46:07;;;;;;;5.80;4.20;;;13.10;99.90;;;;;;5093027;28;20039;-77
2023/08/16 02:48:32;;;;;;;8.05;4.45;;;13.10;99.90;;;;;;5093479;28;20079;-77
2023/08/16 02:50:58;;;;;;;6.93;4.75;;;13.00;99.90;;;;;;5075293;28;20114;-77
2023/08/16 02:53:23;;;;;;;5.30;4.25;;;13.00;99.90;;;;;;5076154;28;20048;-77
2023/08/16 02:55:49;;;;;;;8.10;5.15;;;13.00;99.90;;;;;;5075691;28;20115;-77
2023/08/16 02:58:15;;;;;;;7.28;5.70;;;13.00;99.90;;;;;;5093050;28;20044;-77
2023/08/16 03:00:40;;;;;;;7.07;4.90;;;13.00;99.90;;;;;;5093843;28;20040;-77
2023/08/16 03:03:06;;;;;;;6.40;4.68;;;13.10;99.90;;;;;;5093665;28;20040;-77
2023/08/16 03:05:32;;;;;;;6.53;4.40;;;13.00;99.90;;;;;;5091991;28;20047;-77
2023/08/16 03:07:57;;;;;;;6.65;4.80;;;13.10;99.90;;;;;;5075669;28;20036;-77
2023/08/16 03:10:23;;;;;;;8.85;5.00;;;13.00;99.90;;;;;;5075906;28;20081;-77
2023/08/16 03:12:52;;;;;;;6.88;4.80;;;13.00;99.90;;;;;;5092644;28;20112;-77
2023/08/16 03:15:17;;;;;;;6.35;5.10;;;13.00;99.90;;;;;;5093389;28;20044;-77
2023/08/16 03:17:43;;;;;;;5.60;4.13;;;13.00;99.90;;;;;;5093227;28;20028;-77
2023/08/16 03:20:09;;;;;;;6.60;4.20;;;13.00;99.90;;;;;;5093108;28;20047;-77
2023/08/16 03:22:35;;;;;;;6.85;5.20;;;13.00;99.90;;;;;;5075382;28;20377;-77
2023/08/16 03:25:01;;;;;;;11.02;5.28;;;13.00;99.90;;;;;;5093174;28;20153;-78
2023/08/16 03:27:29;;;;;;;8.70;5.40;;;12.90;99.90;;;;;;5092521;28;20070;-77
2023/08/16 03:29:55;;;;;;;8.02;5.40;;;12.90;99.90;;;;;;5074973;28;20055;-77
2023/08/16 03:32:21;;;;;;;7.80;5.07;;;12.90;99.90;;;;;;5075206;28;20052;-78
2023/08/16 03:34:46;;;;;;;7.20;4.88;;;12.90;99.90;;;;;;5092517;28;20040;-77
2023/08/16 03:37:12;;;;;;;8.02;5.15;;;12.90;99.90;;;;;;5075118;28;20071;-77
2023/08/16 03:39:44;;;;;;;6.22;4.32;;;12.90;99.90;;;;;;5092411;28;20036;-78
2023/08/16 03:42:09;;;;;;;6.15;4.35;;;12.90;99.90;;;;;;5091855;28;20044;-77
2023/08/16 03:44:35;;;;;;;5.03;3.75;;;12.90;99.90;;;;;;5092836;28;20047;-77
2023/08/16 03:47:01;;;;;;;5.55;4.00;;;12.90;99.90;;;;;;5090993;28;20534;-77
2023/08/16 03:49:26;;;;;;;5.88;3.60;;;12.80;99.90;;;;;;5093165;28;20143;-77
2023/08/16 03:51:52;;;;;;;5.85;3.92;;;12.80;99.90;;;;;;5093002;28;20040;-77
2023/08/16 03:54:17;;;;;;;4.85;3.67;;;12.80;99.90;;;;;;5090553;28;20048;-77
2023/08/16 03:56:43;;;;;;;6.75;4.25;;;12.70;99.90;;;;;;5091967;28;20044;-77
2023/08/16 03:59:09;;;;;;;6.85;4.40;;;12.70;99.90;;;;;;5074316;28;20046;-77
2023/08/16 04:01:35;;;;;;;7.68;4.57;;;12.70;99.90;;;;;;5091788;28;20046;-77
2023/08/16 04:04:00;;;;;;;6.30;4.78;;;12.60;99.90;;;;;;5078120;28;20036;-77
2023/08/16 04:06:26;;;;;;;7.95;4.47;;;12.70;99.90;;;;;;5091633;28;20089;-77
2023/08/16 04:08:52;;;;;;;5.88;4.43;;;12.70;99.90;;;;;;5090823;28;20392;-77
2023/08/16 04:11:17;;;;;;;6.68;4.55;;;12.70;99.90;;;;;;5090407;28;20494;-78
2023/08/16 04:13:43;;;;;;;7.43;4.65;;;12.70;99.90;;;;;;5092091;28;20032;-77
2023/08/16 04:16:09;;;;;;;12.32;5.00;;;12.70;99.90;;;;;;5085845;28;20115;-78
2023/08/16 04:18:34;;;;;;;7.20;4.72;;;12.70;99.90;;;;;;5091299;28;20049;-78
2023/08/16 04:21:00;;;;;;;11.18;4.38;;;12.70;99.90;;;;;;5092992;28;20051;-78
2023/08/16 04:23:26;;;;;;;10.98;4.18;;;12.70;99.90;;;;;;5080083;28;20044;-77
2023/08/16 04:25:54;;;;;;;31.60;4.03;;;12.60;99.90;;;;;;5074177;28;20052;-78
2023/08/16 04:28:20;;;;;;;19.25;4.03;;;12.60;99.90;;;;;;5074428;28;20044;-78
2023/08/16 04:30:45;;;;;;;9.30;3.92;;;12.60;99.90;;;;;;5091189;28;20067;-78
2023/08/16 04:33:11;;;;;;;5.70;3.22;;;12.60;99.90;;;;;;5083319;28;20039;-79
2023/08/16 04:35:37;;;;;;;4.60;3.08;;;12.70;99.90;;;;;;5090507;28;20040;-78
2023/08/16 04:38:03;;;;;;;6.40;3.80;;;12.50;99.90;;;;;;5090311;28;20067;-79
2023/08/16 04:40:28;;;;;;;6.88;4.25;;;12.50;99.90;;;;;;5091154;28;20040;-78
2023/08/16 04:42:54;;;;;;;5.88;4.10;;;12.50;99.90;;;;;;5092064;28;20491;-77
2023/08/16 04:45:23;;;;;;;7.40;4.70;;;12.60;99.90;;;;;;5091262;28;20036;-74
2023/08/16 04:47:49;;;;;;;6.45;4.68;;;12.60;99.90;;;;;;5090775;28;20047;-77
2023/08/16 04:50:15;;;;;;;8.45;5.45;;;12.70;99.90;;;;;;5089387;28;20247;-77
2023/08/16 04:52:40;;;;;;;6.95;5.20;;;12.70;99.90;;;;;;5091319;28;20105;-77
2023/08/16 04:55:07;;;;;;;7.20;5.13;;;12.70;99.90;;;;;;5091146;28;20051;-77
2023/08/16 04:57:32;;;;;;;7.45;5.03;;;12.80;99.90;;;;;;5095105;28;20047;-76
2023/08/16 04:59:58;;;;;;;7.20;4.65;;;12.80;99.90;;;;;;5094591;28;20052;-76
2023/08/16 05:02:24;;;;;;;5.93;3.97;;;12.90;99.90;;;;;;5087633;28;20048;-76
2023/08/16 05:04:50;;;;;;;6.15;4.93;;;13.00;99.90;;;;;;5093832;28;20451;-76
2023/08/16 05:07:15;;;;;;;6.47;4.47;;;13.00;99.90;;;;;;5095968;28;20078;-76
2023/08/16 05:09:41;;;;;;;6.75;4.53;;;13.10;99.90;;;;;;5097021;28;20044;-76
2023/08/16 05:12:07;;;;;;;5.13;4.05;;;13.10;99.90;;;;;;5079393;28;20457;-77
2023/08/16 05:14:33;;;;;;;5.53;4.32;;;13.20;99.90;;;;;;5095908;28;20039;-77
2023/08/16 05:16:58;;;;;;;6.07;4.45;;;13.20;99.90;;;;;;5078054;28;20047;-77
2023/08/16 05:19:24;;;;;;;4.93;3.80;;;13.30;99.90;;;;;;5077808;28;20513;-77
2023/08/16 05:21:49;;;;;;;4.47;3.80;;;13.30;99.90;;;;;;5095669;28;20071;-77
2023/08/16 05:24:15;;;;;;;6.00;4.03;;;13.40;99.90;;;;;;5077745;28;20138;-77
2023/08/16 05:26:41;;;;;;;5.00;3.67;;;13.40;99.90;;;;;;5077590;28;20036;-77
2023/08/16 05:29:06;;;;;;;4.43;3.63;;;13.40;99.90;;;;;;5077852;28;20123;-77
2023/08/16 05:31:32;;;;;;;5.45;3.67;;;13.50;99.90;;;;;;5095437;28;20044;-77
2023/08/16 05:33:58;;;;;;;4.53;3.30;;;13.60;99.90;;;;;;5095090;28;20093;-78
2023/08/16 05:36:28;;;;;;;5.20;3.55;;;13.60;99.90;;;;;;5095261;28;20144;-78
2023/08/16 05:39:00;;;;;;;4.90;3.97;;;13.60;99.90;;;;;;5094697;28;20098;-78
2023/08/16 05:41:28;;;;;;;6.45;3.40;;;13.60;99.90;;;;;;5095063;28;20048;-78
2023/08/16 05:43:54;;;;;;;5.05;3.45;;;13.80;99.90;;;;;;5095103;28;20044;-78
2023/08/16 05:46:20;;;;;;;7.15;4.35;;;13.90;99.90;;;;;;5076743;28;20050;-77
2023/08/16 05:48:45;;;;;;;5.07;3.97;;;13.90;99.90;;;;;;5095082;28;20115;-78
2023/08/16 05:51:11;;;;;;;5.95;3.85;;;14.00;99.90;;;;;;5077126;28;20533;-77
2023/08/16 05:53:36;;;;;;;5.50;3.78;;;14.00;99.90;;;;;;5092910;28;20341;-77
2023/08/16 05:56:02;;;;;;;6.05;3.72;;;14.10;99.90;;;;;;5095276;28;20040;-77
2023/08/16 05:58:28;;;;;;;6.05;4.00;;;14.10;99.90;;;;;;5094069;28;20038;-77
2023/08/16 06:00:54;;;;;;;4.80;3.80;;;14.10;99.90;;;;;;5078949;28;20048;-78
2023/08/16 06:03:19;;;;;;;4.75;3.75;;;14.20;99.90;;;;;;5077180;28;20043;-77
2023/08/16 06:05:45;;;;;;;6.13;4.20;;;14.30;99.90;;;;;;5077267;28;20519;-77
2023/08/16 06:08:11;;;;;;;6.85;4.25;;;14.30;99.90;;;;;;5094178;28;20044;-77
2023/08/16 06:10:36;;;;;;;5.68;4.10;;;14.30;99.90;;;;;;5094841;28;20040;-77
2023/08/16 06:13:02;;;;;;;5.65;4.80;;;14.40;99.90;;;;;;5091591;28;20044;-77
2023/08/16 06:15:28;;;;;;;6.93;4.57;;;14.50;99.90;;;;;;5094302;28;20329;-77
2023/08/16 06:17:54;;;;;;;5.65;4.60;;;14.60;99.90;;;;;;5094855;28;20193;-77
2023/08/16 06:20:19;;;;;;;5.00;4.30;;;14.60;99.90;;;;;;5094870;28;20048;-77
2023/08/16 06:22:45;;;;;;;6.85;5.30;;;14.70;99.90;;;;;;5075534;28;20378;-77
2023/08/16 06:25:14;;;;;;;7.45;5.28;;;14.80;99.90;;;;;;5074258;28;20037;-77
2023/08/16 06:27:40;;;;;;;7.70;5.45;;;14.90;99.90;;;;;;5075041;28;20065;-77
2023/08/16 06:30:06;;;;;;;7.45;5.78;;;15.00;99.90;;;;;;5091752;28;20434;-77
2023/08/16 06:32:32;;;;;;;8.15;6.00;;;15.10;99.90;;;;;;5094235;28;20051;-77
2023/08/16 06:34:57;;;;;;;8.68;6.47;;;15.20;99.90;;;;;;5093432;28;20043;-77
2023/08/16 06:37:24;;;;;;;7.93;6.50;;;15.40;99.90;;;;;;5093173;28;20052;-77
2023/08/16 06:39:49;;;;;;;11.13;6.38;;;15.60;99.90;;;;;;5081094;28;20036;-77
2023/08/16 06:42:15;;;;;;;9.00;6.88;;;15.70;99.90;;;;;;5094719;28;20444;-77
2023/08/16 06:44:41;;;;;;;14.13;7.47;;;15.80;99.90;;;;;;5075361;28;20052;-77
2023/08/16 06:47:06;;;;;;;11.38;8.18;;;16.00;99.90;;;;;;5076252;28;20090;-77
2023/08/16 06:49:32;;;;;;;10.38;8.07;;;16.10;99.90;;;;;;5075949;28;20484;-77
2023/08/16 06:51:58;;;;;;;12.63;7.80;;;16.20;99.90;;;;;;5093653;28;20095;-77
2023/08/16 06:54:23;;;;;;;10.73;7.25;;;16.40;99.90;;;;;;5093479;28;20032;-77
2023/08/16 06:56:49;;;;;;;18.25;11.50;;;16.50;99.90;;;;;;5074904;28;20590;-77
2023/08/16 06:59:15;;;;;;;12.20;8.05;;;16.60;99.90;;;;;;5075803;28;20048;-77
2023/08/16 07:01:41;;;;;;;11.50;8.55;;;16.70;99.90;;;;;;5076719;28;20066;-77
2023/08/16 07:04:07;;;;;;;10.15;7.75;;;16.80;99.90;;;;;;5080496;28;20039;-76
2023/08/16 07:06:33;;;;;;;9.77;8.07;;;16.90;99.90;;;;;;5075497;28;20475;-76
2023/08/16 07:08:59;;;;;;;13.45;9.02;;;17.00;99.90;;;;;;5075447;28;20047;-77
2023/08/16 07:11:27;;;;;;;11.27;8.30;;;17.00;99.90;;;;;;5074692;28;20539;-76
2023/08/16 07:13:53;;;;;;;11.88;8.80;;;17.10;99.90;;;;;;5075187;28;20127;-75
2023/08/16 07:16:21;;;;;;;14.55;9.75;;;17.20;99.90;;;;;;5075670;28;20105;-76
2023/08/16 07:18:47;;;;;;;10.75;8.25;;;17.20;99.90;;;;;;5092170;28;20048;-77
2023/08/16 07:21:13;;;;;;;13.43;8.45;;;17.30;99.90;;;;;;5093717;28;20479;-76
2023/08/16 07:23:38;;;;;;;13.07;7.93;;;17.30;99.90;;;;;;5093317;28;20032;-76
2023/08/16 07:26:04;;;;;;;10.35;7.85;;;17.40;99.90;;;;;;5074614;28;20086;-75
2023/08/16 07:28:30;;;;;;;11.55;8.20;;;17.60;99.90;;;;;;5093701;28;20039;-75
2023/08/16 07:30:56;;;;;;;10.50;7.60;;;17.90;99.90;;;;;;5093424;28;20123;-75
2023/08/16 07:33:22;;;;;;;10.57;7.80;;;18.00;99.90;;;;;;5092452;28;20036;-76
2023/08/16 07:35:48;;;;;;;9.88;7.20;;;18.20;99.90;;;;;;5092607;28;20460;-75
2023/08/16 07:38:14;;;;;;;9.30;7.03;;;18.40;99.90;;;;;;5083893;28;20056;-75
2023/08/16 07:40:45;;;;;;;11.00;7.13;;;18.60;99.90;;;;;;5090835;28;20051;-76
2023/08/16 07:43:11;;;;;;;10.38;6.85;;;19.00;99.90;;;;;;5087939;28;20118;-76
2023/08/16 07:45:36;;;;;;;10.75;7.43;;;19.10;99.90;;;;;;5092384;28;20130;-77
2023/08/16 07:48:02;;;;;;;10.73;6.78;;;19.10;99.90;;;;;;5074743;28;20189;-76
2023/08/16 07:50:28;;;;;;;11.02;5.75;;;19.20;99.90;;;;;;5075300;28;20525;-76
2023/08/16 07:52:54;;;;;;;7.22;4.93;;;19.60;99.90;;;;;;5073559;28;20516;-76
2023/08/16 07:55:22;;;;;;;9.52;4.68;;;20.60;99.90;;;;;;5092921;28;20111;-76
2023/08/16 07:57:48;;;;;;;5.70;3.90;;;21.70;99.90;;;;;;5092919;28;20028;-75
2023/08/16 08:00:14;;;;;;;5.82;3.92;;;22.90;99.90;;;;;;5074060;28;20547;-76
2023/08/16 08:02:40;;;;;;;7.32;3.95;;;24.20;99.90;;;;;;5074201;28;20052;-76
2023/08/16 08:05:10;;;;;;;7.10;3.30;;;25.30;99.90;;;;;;5074465;28;20590;-76
2023/08/16 08:07:35;;;;;;;5.53;3.08;;;26.20;99.90;;;;;;5073916;28;20052;-75
2023/08/16 08:10:01;;;;;;;4.43;2.78;;;26.30;99.90;;;;;;5092792;28;20054;-76
2023/08/16 08:12:26;;;;;;;5.35;3.20;;;26.20;99.90;;;;;;5092365;28;20084;-76
2023/08/16 08:14:52;;;;;;;4.90;3.03;;;25.90;99.90;;;;;;5091794;28;20086;-76
2023/08/16 08:17:20;;;;;;;6.10;3.03;;;26.30;99.90;;;;;;5092923;28;20036;-76
2023/08/16 08:19:46;;;;;;;5.50;3.10;;;26.50;99.90;;;;;;5092521;28;20778;-76
2023/08/16 08:22:12;;;;;;;5.90;2.70;;;26.20;99.90;;;;;;5074066;28;20040;-76
2023/08/16 08:24:37;;;;;;;7.57;3.22;;;25.50;99.90;;;;;;5091160;28;20395;-76
2023/08/16 08:27:04;;;;;;;7.15;2.90;;;25.20;99.90;;;;;;5077231;28;20391;-78
2023/08/16 08:29:29;;;;;;;6.00;2.40;;;24.90;99.90;;;;;;5092172;28;20119;-76
2023/08/16 08:31:55;;;;;;;5.90;3.15;;;24.40;99.90;;;;;;5089842;28;20119;-74
2023/08/16 08:34:22;;;;;;;5.82;3.28;;;24.00;99.90;;;;;;5074025;28;20068;-76
2023/08/16 08:36:47;;;;;;;4.95;3.30;;;23.40;99.90;;;;;;5094695;28;20051;-76
2023/08/16 08:39:15;;;;;;;6.30;3.50;;;23.50;99.90;;;;;;5077613;28;20048;-75
2023/08/16 08:41:41;;;;;;;7.30;3.08;;;23.40;99.90;;;;;;5077763;28;20036;-75
2023/08/16 08:44:08;;;;;;;5.32;3.08;;;23.30;99.90;;;;;;5076750;28;20071;-74
2023/08/16 08:46:34;;;;;;;4.65;2.50;;;23.70;99.90;;;;;;5095837;28;20048;-75
2023/08/16 08:49:03;;;;;;;6.40;2.47;;;24.50;99.90;;;;;;5077394;28;20488;-76
2023/08/16 08:51:32;;;;;;;4.55;2.10;;;24.50;99.90;;;;;;5077014;28;20078;-76
2023/08/16 08:53:58;;;;;;;5.70;2.72;;;24.30;99.90;;;;;;5077433;28;20040;-75
2023/08/16 08:56:26;;;;;;;5.20;2.97;;;24.00;99.90;;;;;;5076631;28;20036;-76
2023/08/16 08:58:55;;;;;;;6.05;2.70;;;24.20;99.90;;;;;;5077361;28;20052;-78
2023/08/16 09:01:22;;;;;;;4.63;2.65;;;24.90;99.90;;;;;;5096276;28;20472;-78
2023/08/16 09:03:49;;;;;;;4.13;1.95;;;26.10;99.90;;;;;;5095344;28;20123;-78
2023/08/16 09:06:15;;;;;;;3.72;1.98;;;27.10;99.90;;;;;;5077921;28;20040;-78
2023/08/16 09:08:43;;;;;;;5.55;2.20;;;27.70;97.00;;;;;;5096097;28;20040;-78
2023/08/16 09:11:10;;;;;;;3.25;1.83;;;28.20;99.00;;;;;;5077311;28;20101;-76
2023/08/16 09:13:36;;;;;;;4.05;2.20;;;28.90;97.40;;;;;;5078355;28;20419;-76
2023/08/16 09:16:02;;;;;;;6.38;2.00;;;29.70;97.60;;;;;;5088517;28;20526;-75
2023/08/16 09:18:28;;;;;;;4.38;2.15;;;29.40;96.40;;;;;;5094308;28;20143;-75
2023/08/16 09:20:53;;;;;;;4.53;2.08;;;28.80;96.50;;;;;;5094960;28;20040;-76
2023/08/16 09:23:21;;;;;;;4.72;2.10;;;28.20;96.40;;;;;;5077159;28;20036;-78
2023/08/16 09:25:47;;;;;;;5.00;2.10;;;28.10;97.10;;;;;;5075833;28;20064;-77
2023/08/16 09:28:14;;;;;;;5.13;2.10;;;28.50;96.50;;;;;;5076600;28;20028;-77
2023/08/16 09:30:42;;;;;;;3.92;1.90;;;29.00;96.90;;;;;;5094714;28;20086;-75
2023/08/16 09:33:12;;;;;;;4.78;1.88;;;28.50;95.70;;;;;;5074327;28;20475;-74
2023/08/16 09:35:51;;;;;;;5.10;1.70;;;28.00;96.20;;;;;;5093629;28;20073;-74
2023/08/16 09:38:21;;;;;;;4.32;1.80;;;28.00;96.00;;;;;;5054931;28;20056;-76
2023/08/16 09:40:51;;;;;;;4.97;1.45;;;27.60;95.80;;;;;;5052395;28;20056;-75
2023/08/16 09:43:20;;;;;;;3.80;1.52;;;27.90;96.40;;;;;;5072406;28;20450;-77
2023/08/16 09:45:49;;;;;;;2.92;1.40;;;28.20;96.20;;;;;;5073878;28;20053;-79
2023/08/16 09:48:15;;;;;;;3.53;1.40;;;28.60;96.20;;;;;;5073434;28;20057;-77
2023/08/16 09:50:40;;;;;;;2.60;1.40;;;28.80;95.70;;;;;;5072747;28;20036;-77
2023/08/16 09:53:06;;;;;;;3.47;1.48;;;28.90;95.30;;;;;;5065576;28;20041;-79
2023/08/16 09:55:35;;;;;;;4.65;1.55;;;28.90;95.30;;;;;;5053102;28;20139;-78
2023/08/16 09:58:01;;;;;;;3.33;1.33;;;28.70;94.80;;;;;;5054542;28;20085;-77
2023/08/16 10:00:28;;;;;;;3.63;1.15;;;29.00;95.40;;;;;;5053471;28;20056;-79
2023/08/16 10:02:56;;;;;;;2.92;1.48;;;29.60;95.50;;;;;;5054326;28;20385;-77
2023/08/16 10:05:23;;;;;;;3.53;1.50;;;30.00;94.10;;;;;;5052570;28;20094;-77
2023/08/16 10:07:50;;;;;;;2.85;1.40;;;29.90;94.00;;;;;;5053806;28;20120;-77
2023/08/16 10:10:16;;;;;;;3.78;1.77;;;29.60;93.40;;;;;;5052188;28;20071;-76
2023/08/16 10:12:43;;;;;;;4.13;1.80;;;29.40;94.30;;;;;;5052777;28;20037;-77
2023/08/16 10:15:10;;;;;;;3.95;1.70;;;28.80;93.80;;;;;;5052391;28;20124;-77
2023/08/16 10:17:43;;;;;;;4.20;1.90;;;28.30;94.40;;;;;;5053589;28;20468;-77
2023/08/16 10:20:36;;;;;;;4.82;2.05;;;27.50;94.40;;;;;;5054184;28;20053;-77
2023/08/16 10:23:04;;;;;;;3.45;1.80;;;27.10;95.30;;;;;;5050024;28;20106;-77
2023/08/16 10:25:44;;;;;;;4.43;2.10;;;26.70;96.20;;;;;;5052921;28;20037;-77
2023/08/16 10:28:10;;;;;;;4.00;1.67;;;26.40;96.10;;;;;;5053096;28;20485;-78
2023/08/16 10:30:37;;;;;;;4.95;1.70;;;25.90;96.60;;;;;;5052770;28;20051;-78
2023/08/16 10:33:21;;;;;;;3.58;1.50;;;25.70;96.90;;;;;;5053095;28;20044;-78
2023/08/16 10:35:50;;;;;;;2.50;1.30;;;25.60;97.10;;;;;;5055529;28;20036;-77
2023/08/16 10:38:23;;;;;;;3.05;1.20;;;26.20;97.70;;;;;;5094761;28;20411;-77
2023/08/16 10:40:58;;;;;;;3.50;1.35;;;26.20;96.30;;;;;;5075945;28;20044;-78
2023/08/16 10:43:33;;;;;;;4.35;1.30;;;27.80;94.60;;;;;;5093573;28;20040;-78
2023/08/16 10:45:59;;;;;;;2.55;1.20;;;28.70;93.10;;;;;;5076345;28;20052;-78
2023/08/16 10:48:32;;;;;;;2.95;1.45;;;29.60;94.10;;;;;;5076035;28;20048;-78
2023/08/16 10:50:57;;;;;;;3.05;1.17;;;30.30;93.60;;;;;;5075374;28;20475;-78
2023/08/16 10:53:27;;;;;;;2.95;1.35;;;30.50;93.30;;;;;;5075253;28;20046;-78
2023/08/16 10:55:57;;;;;;;3.78;1.20;;;29.90;93.10;;;;;;5075016;28;20499;-78
2023/08/16 10:58:28;;;;;;;2.95;1.20;;;29.80;94.00;;;;;;5094160;28;20040;-78
2023/08/16 11:01:08;;;;;;;2.95;1.15;;;29.80;93.10;;;;;;5075377;28;20047;-78
2023/08/16 11:03:34;;;;;;;3.33;1.40;;;30.20;92.20;;;;;;5218881;22;20044;-78
2023/08/16 11:06:07;;;;;;;2.63;1.10;;;30.60;93.00;;;;;;5056315;28;20045;-78
2023/08/16 11:08:32;;;;;;;2.85;1.10;;;30.70;92.70;;;;;;5073550;28;20055;-77
2023/08/16 11:11:01;;;;;;;3.22;1.15;;;30.80;93.20;;;;;;5054967;28;20044;-77
2023/08/16 11:13:28;;;;;;;3.22;1.20;;;31.20;92.90;;;;;;5055687;28;20037;-77
2023/08/16 11:16:04;;;;;;;3.90;1.30;;;31.10;93.00;;;;;;5055780;28;20048;-78
2023/08/16 11:18:32;;;;;;;3.03;1.20;;;31.20;93.80;;;;;;5055344;28;20060;-79
2023/08/16 11:20:59;;;;;;;4.05;1.33;;;31.00;91.90;;;;;;5055463;28;20045;-79
2023/08/16 11:23:34;;;;;;;4.65;1.40;;;30.60;92.70;;;;;;5073237;28;20036;-78
2023/08/16 11:26:01;;;;;;;4.63;1.23;;;30.60;93.20;;;;;;5051005;28;20480;-80
2023/08/16 11:28:31;;;;;;;4.78;1.45;;;30.90;92.40;;;;;;5072740;28;20048;-77
2023/08/16 11:31:15;;;;;;;2.85;1.20;;;31.40;92.20;;;;;;5072858;28;20111;-82
2023/08/16 11:33:43;;;;;;;3.00;1.20;;;31.50;91.70;;;;;;5054995;28;20040;-77
2023/08/16 11:36:12;;;;;;;3.17;1.00;;;31.30;92.40;;;;;;5072945;28;20140;-78
2023/08/16 11:38:39;;;;;;;2.90;1.10;;;31.30;92.00;;;;;;5054344;28;20087;-78
2023/08/16 11:41:05;;;;;;;3.58;1.10;;;31.30;91.60;;;;;;5072557;28;20048;-81
2023/08/16 11:43:34;;;;;;;3.28;1.02;;;31.20;92.40;;;;;;5054689;28;20094;-75
2023/08/16 11:46:01;;;;;;;3.50;1.10;;;31.50;92.10;;;;;;5049749;28;20055;-78
2023/08/16 11:48:29;;;;;;;2.92;1.02;;;31.60;91.70;;;;;;5054182;28;20090;-76
2023/08/16 11:50:59;;;;;;;4.72;1.10;;;31.80;91.90;;;;;;5073017;28;20044;-78
2023/08/16 11:53:35;;;;;;;3.60;1.20;;;31.70;91.40;;;;;;5072733;28;20051;-77
2023/08/16 11:56:08;;;;;;;2.22;1.10;;;31.50;90.90;;;;;;5053992;28;20036;-78
2023/08/16 11:58:44;;;;;;;3.47;1.10;;;31.50;90.60;;;;;;5053662;28;20052;-78
2023/08/16 12:01:14;;;;;;;1.98;0.88;;;31.20;90.70;;;;;;5053024;28;20456;-78
2023/08/16 12:03:40;;;;;;;3.55;1.42;;;31.10;90.50;;;;;;5068018;28;20123;-79
2023/08/16 12:06:09;;;;;;;1.98;0.95;;;31.10;91.30;;;;;;5053615;28;20408;-76
2023/08/16 12:08:35;;;;;;;3.70;0.80;;;31.20;91.00;;;;;;5053651;28;20123;-77
2023/08/16 12:11:02;;;;;;;2.88;1.10;;;31.20;90.60;;;;;;5071419;28;20033;-77
2023/08/16 12:13:28;;;;;;;2.88;1.08;;;31.00;89.80;;;;;;5053156;28;20114;-75
2023/08/16 12:15:54;;;;;;;1.30;0.68;;;30.90;90.30;;;;;;5054037;28;20048;-79
2023/08/16 12:18:21;;;;;;;1.85;0.98;;;30.70;90.10;;;;;;5054487;28;20041;-80
2023/08/16 12:20:50;;;;;;;1.67;0.70;;;30.80;91.00;;;;;;5071360;28;20105;-79
2023/08/16 12:23:17;;;;;;;1.95;0.80;;;30.90;90.80;;;;;;5054639;28;20067;-80
2023/08/16 12:25:43;;;;;;;2.60;0.82;;;30.90;90.70;;;;;;5054532;28;20060;-78
2023/08/16 12:28:09;;;;;;;2.33;0.80;;;30.90;90.40;;;;;;5053669;28;20063;-81
2023/08/16 12:30:34;;;;;;;4.20;0.85;;;30.90;90.50;;;;;;5054165;28;20408;-81
2023/08/16 12:33:01;;;;;;;1.77;0.80;;;30.90;89.80;;;;;;5072277;28;20097;-81
2023/08/16 12:35:27;;;;;;;1.98;1.00;;;30.70;91.00;;;;;;5053726;28;20036;-78
2023/08/16 12:37:53;;;;;;;3.13;0.98;;;30.70;90.80;;;;;;5054196;28;20043;-80
2023/08/16 12:40:18;;;;;;;3.08;0.88;;;30.50;90.80;;;;;;5054508;28;20048;-81
2023/08/16 12:42:44;;;;;;;2.53;1.00;;;30.70;90.90;;;;;;5052818;28;20407;-79
2023/08/16 12:45:10;;;;;;;2.08;1.10;;;30.60;90.90;;;;;;5071923;28;20040;-82